createdAt,value
2023-01-11T00:01:08.489Z,64.50
2023-01-11T00:03:35.482Z,64.30
2023-01-11T00:06:02.390Z,63.70
2023-01-11T00:08:29.365Z,63.70
2023-01-11T00:10:56.611Z,63.50
2023-01-11T00:13:23.866Z,63.80
2023-01-11T00:15:50.697Z,63.40
2023-01-11T00:18:17.827Z,63.30
2023-01-11T00:20:44.673Z,63.50
2023-01-11T00:23:11.488Z,63.50
2023-01-11T00:25:38.575Z,63.60
2023-01-11T00:28:06.247Z,64.00
2023-01-11T00:30:33.118Z,63.90
2023-01-11T00:33:00.853Z,63.90
2023-01-11T00:35:29.622Z,64.00
2023-01-11T00:37:56.522Z,63.60
2023-01-11T00:40:24.257Z,64.20
2023-01-11T00:43:09.499Z,64.20
2023-01-11T00:45:56.037Z,64.30
2023-01-11T00:48:23.019Z,64.20
2023-01-11T00:50:54.149Z,64.20
2023-01-11T00:53:21.355Z,64.40
2023-01-11T00:55:48.146Z,64.40
2023-01-11T00:58:15.880Z,64.70
2023-01-11T01:00:42.729Z,64.90
2023-01-11T01:03:09.618Z,64.80
2023-01-11T01:05:38.734Z,64.90
2023-01-11T01:08:06.573Z,65.30
2023-01-11T01:10:33.905Z,65.10
2023-01-11T01:13:19.483Z,65.10
2023-01-11T01:15:46.453Z,65.20
2023-01-11T01:18:13.353Z,65.40
2023-01-11T01:20:40.308Z,65.40
2023-01-11T01:23:07.097Z,65.60
2023-01-11T01:25:37.193Z,65.80
2023-01-11T01:28:04.275Z,66.00
2023-01-11T01:30:31.051Z,66.10
2023-01-11T01:32:57.895Z,66.00
2023-01-11T01:35:24.699Z,66.30
2023-01-11T01:37:51.535Z,66.30
2023-01-11T01:40:18.455Z,66.30
2023-01-11T01:42:45.284Z,66.20
2023-01-11T01:45:24.004Z,66.50
2023-01-11T01:48:02.116Z,66.70
2023-01-11T01:50:40.463Z,66.30
2023-01-11T01:53:20.065Z,66.30
2023-01-11T01:55:53.415Z,66.20
2023-01-11T01:58:23.923Z,66.40
2023-01-11T02:00:51.451Z,66.40
2023-01-11T02:03:26.383Z,66.70
2023-01-11T02:05:54.727Z,66.70
2023-01-11T02:08:34.388Z,66.80
2023-01-11T02:11:02.303Z,66.50
2023-01-11T02:13:30.385Z,66.40
2023-01-11T02:18:46.246Z,66.60
2023-01-11T02:21:25.836Z,66.20
2023-01-11T02:24:04.200Z,66.40
2023-01-11T02:26:36.862Z,66.60
2023-01-11T02:29:41.366Z,66.20
2023-01-11T02:32:22.225Z,66.50
2023-01-11T02:34:55.481Z,66.70
2023-01-11T02:37:42.571Z,66.90
2023-01-11T02:40:21.011Z,67.20
2023-01-11T02:43:20.098Z,67.10
2023-01-11T02:46:12.059Z,67.10
2023-01-11T02:48:56.832Z,66.70
2023-01-11T02:51:31.937Z,66.60
2023-01-11T02:54:07.077Z,66.50
2023-01-11T02:56:42.153Z,66.70
2023-01-11T02:59:16.417Z,66.80
2023-01-11T03:01:48.222Z,66.80
2023-01-11T03:04:32.595Z,67.30
2023-01-11T03:07:08.356Z,67.30
2023-01-11T03:10:12.815Z,67.50
2023-01-11T03:13:00.907Z,67.80
2023-01-11T03:15:45.261Z,67.70
2023-01-11T03:18:40.491Z,67.60
2023-01-11T03:21:36.001Z,68.00
2023-01-11T03:24:41.324Z,68.10
2023-01-11T03:27:35.242Z,68.20
2023-01-11T03:30:06.600Z,68.20
2023-01-11T03:33:03.266Z,67.80
2023-01-11T03:35:53.584Z,67.80
2023-01-11T03:38:21.029Z,67.50
2023-01-11T03:40:54.061Z,68.30
2023-01-11T03:43:23.263Z,68.20
2023-01-11T03:46:02.188Z,68.30
2023-01-11T03:48:35.104Z,68.00
2023-01-11T03:51:05.227Z,68.30
2023-01-11T03:53:36.642Z,68.20
2023-01-11T03:56:09.393Z,68.40
2023-01-11T03:58:36.847Z,68.20
2023-01-11T04:01:04.321Z,68.30
2023-01-11T04:03:31.330Z,68.50
2023-01-11T04:06:01.865Z,68.00
2023-01-11T04:08:29.366Z,68.60
2023-01-11T04:10:56.197Z,68.30
2023-01-11T04:13:23.170Z,68.20
2023-01-11T04:15:49.929Z,68.20
2023-01-11T04:18:16.945Z,68.30
2023-01-11T04:20:46.191Z,68.50
2023-01-11T04:23:13.012Z,68.40
2023-01-11T04:25:39.812Z,68.30
2023-01-11T04:28:06.710Z,68.50
2023-01-11T04:30:33.938Z,68.60
2023-01-11T04:33:00.787Z,68.60
2023-01-11T04:35:27.662Z,69.00
2023-01-11T04:37:56.065Z,68.80
2023-01-11T04:40:23.790Z,69.00
2023-01-11T04:42:50.650Z,69.30
2023-01-11T04:45:17.561Z,69.00
2023-01-11T04:47:44.549Z,69.10
2023-01-11T04:50:11.954Z,69.20
2023-01-11T04:52:41.441Z,69.90
2023-01-11T04:55:09.380Z,69.50
2023-01-11T04:57:36.460Z,69.30
2023-01-11T05:00:07.960Z,69.50
2023-01-11T05:02:34.849Z,69.60
2023-01-11T05:05:02.249Z,69.60
2023-01-11T05:07:29.204Z,69.30
2023-01-11T05:09:56.098Z,69.60
2023-01-11T05:12:23.033Z,70.40
2023-01-11T05:14:50.000Z,69.90
2023-01-11T05:17:17.276Z,69.80
2023-01-11T05:19:44.104Z,70.10
2023-01-11T05:22:11.019Z,70.10
2023-01-11T05:24:37.800Z,70.10
2023-01-11T05:27:04.712Z,70.70
2023-01-11T05:29:31.510Z,70.00
2023-01-11T05:31:58.436Z,70.10
2023-01-11T05:34:25.239Z,70.00
2023-01-11T05:36:52.093Z,70.00
2023-01-11T05:39:19.089Z,70.00
2023-01-11T05:41:45.984Z,70.30
2023-01-11T05:44:31.820Z,70.20
2023-01-11T05:46:58.843Z,69.70
2023-01-11T05:49:25.768Z,69.80
2023-01-11T05:51:52.681Z,70.10
2023-01-11T05:54:19.551Z,70.10
2023-01-11T05:56:46.458Z,69.90
2023-01-11T05:59:13.415Z,70.20
2023-01-11T06:01:40.329Z,70.90
2023-01-11T06:04:08.412Z,70.70
2023-01-11T06:06:35.520Z,70.90
2023-01-11T06:09:02.394Z,71.20
2023-01-11T06:11:29.371Z,71.70
2023-01-11T06:13:56.619Z,71.60
2023-01-11T06:16:23.982Z,71.90
2023-01-11T06:18:53.035Z,72.10
2023-01-11T06:21:21.372Z,72.40
2023-01-11T06:23:50.992Z,72.20
2023-01-11T06:26:19.865Z,72.10
2023-01-11T06:28:47.447Z,72.10
2023-01-11T06:31:17.546Z,72.20
2023-01-11T06:33:45.871Z,72.20
2023-01-11T06:36:13.676Z,72.10
2023-01-11T06:38:41.197Z,71.70
2023-01-11T06:41:09.156Z,71.20
2023-01-11T06:43:38.067Z,71.30
2023-01-11T06:46:05.578Z,71.10
2023-01-11T06:48:32.553Z,70.60
2023-01-11T06:50:59.481Z,71.00
2023-01-11T06:53:29.155Z,71.00
2023-01-11T06:55:57.811Z,71.50
2023-01-11T06:58:26.013Z,71.60
2023-01-11T07:00:54.637Z,71.60
2023-01-11T07:04:39.647Z,71.80
2023-01-11T07:07:13.601Z,72.80
2023-01-11T07:09:40.591Z,73.00
2023-01-11T07:12:07.421Z,72.80
2023-01-11T07:14:34.338Z,72.00
2023-01-11T07:17:01.287Z,71.80
2023-01-11T07:19:28.160Z,71.70
2023-01-11T07:21:54.968Z,71.40
2023-01-11T07:24:24.337Z,72.40
2023-01-11T07:26:52.851Z,73.00
2023-01-11T07:29:19.999Z,73.30
2023-01-11T07:31:47.708Z,72.90
2023-01-11T07:34:14.722Z,72.20
2023-01-11T07:36:41.524Z,72.00
2023-01-11T07:39:08.462Z,72.20
2023-01-11T07:41:53.996Z,72.20
2023-01-11T07:44:21.092Z,72.60
2023-01-11T07:46:47.933Z,72.90
2023-01-11T07:49:14.840Z,72.90
2023-01-11T07:51:41.700Z,71.70
2023-01-11T07:54:08.641Z,71.40
2023-01-11T07:56:35.411Z,71.50
2023-01-11T07:59:02.388Z,71.50
2023-01-11T08:01:29.232Z,71.30
2023-01-11T08:03:56.147Z,71.60
2023-01-11T08:06:22.994Z,70.90
2023-01-11T08:08:49.789Z,70.90
2023-01-11T08:11:35.265Z,70.70
2023-01-11T08:14:20.527Z,71.10
2023-01-11T08:16:47.381Z,71.00
2023-01-11T08:19:14.164Z,71.50
2023-01-11T08:21:43.445Z,71.40
2023-01-11T08:24:10.544Z,71.70
2023-01-11T08:26:37.416Z,71.40
2023-01-11T08:29:04.297Z,71.80
2023-01-11T08:31:31.207Z,72.30
2023-01-11T08:33:57.958Z,72.00
2023-01-11T08:36:27.338Z,71.90
2023-01-11T08:38:57.590Z,71.80
2023-01-11T08:41:25.253Z,72.00
2023-01-11T08:43:52.244Z,72.10
2023-01-11T08:46:19.569Z,72.10
2023-01-11T08:48:50.052Z,72.10
2023-01-11T08:51:18.154Z,71.90
2023-01-11T08:53:45.433Z,71.30
2023-01-11T08:56:12.356Z,72.20
2023-01-11T08:58:39.277Z,71.00
2023-01-11T09:01:09.569Z,70.70
2023-01-11T09:03:41.264Z,70.40
2023-01-11T09:06:11.371Z,69.80
2023-01-11T09:08:44.789Z,69.80
2023-01-11T09:11:44.542Z,69.40
2023-01-11T09:14:15.674Z,69.40
2023-01-11T09:16:43.891Z,68.80
2023-01-11T09:19:11.254Z,69.20
2023-01-11T09:21:41.117Z,69.10
2023-01-11T09:24:08.996Z,69.30
2023-01-11T09:26:37.602Z,69.10
2023-01-11T09:29:05.269Z,69.20
2023-01-11T09:31:33.622Z,69.40
2023-01-11T09:34:00.859Z,69.00
2023-01-11T09:36:28.053Z,68.70
2023-01-11T09:38:57.489Z,68.70
2023-01-11T09:41:46.564Z,68.60
2023-01-11T09:44:21.384Z,68.40
2023-01-11T09:46:52.397Z,68.30
2023-01-11T09:49:34.426Z,67.50
2023-01-11T09:52:28.675Z,66.90
2023-01-11T09:54:58.197Z,66.10
2023-01-11T09:58:02.943Z,66.40
2023-01-11T10:00:50.608Z,66.40
2023-01-11T10:04:00.137Z,66.10
2023-01-11T10:07:08.608Z,66.10
2023-01-11T10:18:31.655Z,65.70
2023-01-11T10:18:53.821Z,65.30
2023-01-11T10:21:28.850Z,65.50
2023-01-11T10:24:06.871Z,65.30
2023-01-11T10:26:39.967Z,64.90
2023-01-11T10:29:16.494Z,64.80
2023-01-11T10:32:02.493Z,64.80
2023-01-11T10:34:59.035Z,64.00
2023-01-11T10:37:52.212Z,63.40
2023-01-11T10:40:30.453Z,63.50
2023-01-11T10:43:21.864Z,63.70
2023-01-11T10:45:55.815Z,63.80
2023-01-11T10:48:39.237Z,63.80
2023-01-11T10:51:27.435Z,63.60
2023-01-11T10:54:00.715Z,64.00
2023-01-11T10:57:02.771Z,64.70
2023-01-11T10:59:42.876Z,65.10
2023-01-11T11:02:24.785Z,65.50
2023-01-11T11:05:36.159Z,65.50
2023-01-11T11:08:26.635Z,65.30
2023-01-11T11:11:09.257Z,65.40
2023-01-11T11:13:54.921Z,65.60
2023-01-11T11:16:21.765Z,65.70
2023-01-11T11:18:54.029Z,65.70
2023-01-11T11:21:29.101Z,65.10
2023-01-11T11:24:00.483Z,64.00
2023-01-11T11:26:38.228Z,63.70
2023-01-11T11:29:09.014Z,62.80
2023-01-11T11:31:42.170Z,62.00
2023-01-11T11:34:20.668Z,61.40
2023-01-11T11:36:51.688Z,61.10
2023-01-11T11:39:25.654Z,61.30
2023-01-11T11:41:58.729Z,61.10
2023-01-11T11:44:27.675Z,61.00
2023-01-11T11:46:58.560Z,61.20
2023-01-11T11:49:26.163Z,61.40
2023-01-11T11:51:53.853Z,61.00
2023-01-11T11:54:26.039Z,61.40
2023-01-11T11:56:54.463Z,60.40
2023-01-11T11:59:23.549Z,60.20
2023-01-11T12:01:59.334Z,59.60
2023-01-11T12:04:47.241Z,59.50
2023-01-11T12:07:15.850Z,59.00
2023-01-11T12:10:05.312Z,58.60
2023-01-11T12:12:34.281Z,58.00
2023-01-11T12:15:16.384Z,57.50
2023-01-11T12:17:43.672Z,57.40
2023-01-11T12:20:22.465Z,57.30
2023-01-11T12:23:09.825Z,57.70
2023-01-11T12:25:49.054Z,57.40
2023-01-11T12:28:28.053Z,57.80
2023-01-11T12:31:03.158Z,58.20
2023-01-11T12:33:38.584Z,58.70
2023-01-11T12:36:20.586Z,58.80
2023-01-11T12:39:12.424Z,59.00
2023-01-11T12:41:57.791Z,59.00
2023-01-11T12:44:52.227Z,59.10
2023-01-11T12:47:40.256Z,58.90
2023-01-11T12:50:13.037Z,59.10
2023-01-11T12:53:09.722Z,59.30
2023-01-11T12:55:58.144Z,59.30
2023-01-11T12:58:28.145Z,59.20
2023-01-11T13:01:29.424Z,59.20
2023-01-11T13:04:51.651Z,59.30
2023-01-11T13:07:21.246Z,59.40
2023-01-11T13:10:06.559Z,59.70
2023-01-11T13:12:54.538Z,59.30
2023-01-11T13:15:46.984Z,59.50
2023-01-11T13:18:29.418Z,59.50
2023-01-11T13:21:14.496Z,58.30
2023-01-11T13:23:49.618Z,58.20
2023-01-11T13:27:01.103Z,58.10
2023-01-11T13:29:31.711Z,58.00
2023-01-11T13:32:02.428Z,57.60
2023-01-11T13:34:47.822Z,58.20
2023-01-11T13:37:25.904Z,57.90
2023-01-11T13:40:08.437Z,58.00
2023-01-11T13:42:39.611Z,58.10
2023-01-11T13:45:15.580Z,57.70
2023-01-11T13:47:50.484Z,57.50
2023-01-11T13:50:37.342Z,57.50
2023-01-11T13:53:39.035Z,57.50
2023-01-11T13:56:39.664Z,57.40
2023-01-11T13:59:16.043Z,57.40
2023-01-11T14:02:00.869Z,57.50
2023-01-11T14:04:30.186Z,57.40
2023-01-11T14:07:09.597Z,57.70
2023-01-11T14:10:10.703Z,57.40
2023-01-11T14:12:53.320Z,57.60
2023-01-11T14:15:37.988Z,57.60
2023-01-11T14:18:11.285Z,57.60
2023-01-11T14:20:59.131Z,57.60
2023-01-11T14:23:35.415Z,57.90
2023-01-11T14:26:23.417Z,57.80
2023-01-11T14:28:59.337Z,57.70
2023-01-11T14:32:03.659Z,57.80
2023-01-11T14:34:50.156Z,57.80
2023-01-11T14:37:49.278Z,57.90
2023-01-11T14:40:30.126Z,57.80
2023-01-11T14:43:32.359Z,58.00
2023-01-11T14:46:26.953Z,58.00
2023-01-11T14:49:02.886Z,57.90
2023-01-11T14:51:33.732Z,58.00
2023-01-11T14:54:11.974Z,57.90
2023-01-11T14:56:44.531Z,58.00
2023-01-11T14:59:34.603Z,58.10
2023-01-11T15:02:04.786Z,58.20
2023-01-11T15:04:34.533Z,58.20
2023-01-11T15:07:02.441Z,58.20
2023-01-11T15:09:56.466Z,58.40
2023-01-11T15:12:32.437Z,58.90
2023-01-11T15:15:18.927Z,59.00
2023-01-11T15:18:04.694Z,59.30
2023-01-11T15:20:33.682Z,59.60
2023-01-11T15:23:03.449Z,59.80
2023-01-11T15:25:33.931Z,60.00
2023-01-11T15:28:26.049Z,60.30
2023-01-11T15:30:53.412Z,60.70
2023-01-11T15:33:20.307Z,60.90
2023-01-11T15:35:56.481Z,61.20
2023-01-11T15:38:49.304Z,60.80
2023-01-11T15:41:55.672Z,61.20
2023-01-11T15:45:00.227Z,61.60
2023-01-11T15:47:49.715Z,61.40
2023-01-11T15:50:58.819Z,61.70
2023-01-11T15:53:34.585Z,61.90
2023-01-11T15:56:27.805Z,62.00
2023-01-11T15:59:09.399Z,62.30
2023-01-11T16:02:14.512Z,61.80
2023-01-11T16:05:13.333Z,62.10
2023-01-11T16:07:46.598Z,62.30
2023-01-11T16:10:38.104Z,62.50
2023-01-11T16:13:26.325Z,62.80
2023-01-11T16:15:58.987Z,62.80
2023-01-11T16:18:33.675Z,63.30
2023-01-11T16:21:15.140Z,63.40
2023-01-11T16:23:42.111Z,63.80
2023-01-11T16:26:09.083Z,64.10
2023-01-11T16:28:36.405Z,64.60
2023-01-11T16:31:05.620Z,64.80
2023-01-11T16:33:34.533Z,65.30
2023-01-11T16:36:12.096Z,65.20
2023-01-11T16:38:48.018Z,65.50
2023-01-11T16:41:16.585Z,65.60
2023-01-11T16:44:02.276Z,66.00
2023-01-11T16:47:04.268Z,66.20
2023-01-11T16:49:31.357Z,66.40
2023-01-11T16:52:00.416Z,66.80
2023-01-11T16:54:32.111Z,66.90
2023-01-11T16:57:01.418Z,67.00
2023-01-11T16:59:34.884Z,67.20
2023-01-11T17:02:03.713Z,67.30
2023-01-11T17:04:48.288Z,67.40
2023-01-11T17:07:27.664Z,67.40
2023-01-11T17:10:14.535Z,67.50
2023-01-11T17:12:45.593Z,67.50
2023-01-11T17:15:38.257Z,67.50
2023-01-11T17:18:05.202Z,67.90
2023-01-11T17:20:32.217Z,67.70
2023-01-11T17:22:59.627Z,67.70
2023-01-11T17:25:41.011Z,67.80
2023-01-11T17:28:18.294Z,67.90
2023-01-11T17:30:48.092Z,68.00
2023-01-11T17:33:26.369Z,68.10
2023-01-11T17:35:54.733Z,68.20
2023-01-11T17:38:24.625Z,68.40
2023-01-11T17:40:51.899Z,68.60
2023-01-11T17:43:46.009Z,68.80
2023-01-11T17:46:18.512Z,68.80
2023-01-11T17:48:56.373Z,68.60
2023-01-11T17:51:31.462Z,68.40
2023-01-11T17:53:58.371Z,68.40
2023-01-11T17:56:45.197Z,68.70
2023-01-11T17:59:11.972Z,68.80
2023-01-11T18:01:39.305Z,68.90
2023-01-11T18:04:06.335Z,69.10
2023-01-11T18:06:43.918Z,69.30
2023-01-11T18:09:31.798Z,69.20
2023-01-11T18:12:06.952Z,69.00
2023-01-11T18:14:40.665Z,68.60
2023-01-11T18:17:36.717Z,68.50
2023-01-11T18:20:29.407Z,68.60
2023-01-11T18:22:59.892Z,69.00
2023-01-11T18:25:32.783Z,69.20
2023-01-11T18:28:12.062Z,69.20
2023-01-11T18:30:45.883Z,69.60
2023-01-11T18:33:16.973Z,69.60
2023-01-11T18:35:45.087Z,69.60
2023-01-11T18:38:33.993Z,69.70
2023-01-11T18:41:24.999Z,69.50
2023-01-11T18:43:53.469Z,69.20
2023-01-11T18:46:20.622Z,68.70
2023-01-11T18:48:47.496Z,68.40
2023-01-11T18:51:21.156Z,68.50
2023-01-11T18:53:48.003Z,68.30
2023-01-11T18:56:17.087Z,68.00
2023-01-11T19:01:54.336Z,68.30
2023-01-11T19:04:26.141Z,68.00
2023-01-11T19:07:02.157Z,67.80
2023-01-11T19:09:29.099Z,68.00
2023-01-11T19:11:56.147Z,68.40
2023-01-11T19:14:23.497Z,68.70
2023-01-11T19:16:51.067Z,68.80
2023-01-11T19:19:17.958Z,69.10
2023-01-11T19:21:45.151Z,69.50
2023-01-11T19:24:12.368Z,69.40
2023-01-11T19:26:39.380Z,69.30
2023-01-11T19:29:06.572Z,69.20
2023-01-11T19:32:40.023Z,69.00
2023-01-11T19:35:23.891Z,69.10
2023-01-11T19:37:51.443Z,69.00
2023-01-11T19:40:21.229Z,69.00
2023-01-11T19:42:48.900Z,69.00
2023-01-11T19:45:15.986Z,69.10
2023-01-11T19:47:42.953Z,69.30
2023-01-11T19:50:11.483Z,69.30
2023-01-11T19:52:38.451Z,70.00
2023-01-11T19:55:05.725Z,69.30
2023-01-11T19:57:32.739Z,69.40
2023-01-11T19:59:59.672Z,69.50
2023-01-11T20:02:26.644Z,69.40
2023-01-11T20:04:53.836Z,69.00
2023-01-11T20:07:21.256Z,69.20
2023-01-11T20:09:56.575Z,69.20
2023-01-11T20:12:23.676Z,69.30
2023-01-11T20:14:50.525Z,69.30
2023-01-11T20:17:21.003Z,69.50
2023-01-11T20:19:54.554Z,69.80
2023-01-11T20:22:33.490Z,71.00
2023-01-11T20:25:00.479Z,70.90
2023-01-11T20:27:27.821Z,70.80
2023-01-11T20:29:54.836Z,70.60
2023-01-11T20:32:41.113Z,70.30
2023-01-11T20:35:09.598Z,70.40
2023-01-11T20:37:36.678Z,70.60
2023-01-11T20:40:04.085Z,70.60
2023-01-11T20:42:31.626Z,70.60
2023-01-11T20:44:58.606Z,70.60
2023-01-11T20:47:25.463Z,70.60
2023-01-11T20:49:52.453Z,70.70
2023-01-11T20:52:19.387Z,70.90
2023-01-11T20:54:46.374Z,70.90
2023-01-11T20:57:13.331Z,71.20
2023-01-11T20:59:40.299Z,70.50
2023-01-11T21:02:07.751Z,70.80
2023-01-11T21:04:35.808Z,70.60
2023-01-11T21:07:03.313Z,70.40
2023-01-11T21:09:30.259Z,70.30
2023-01-11T21:11:57.151Z,70.30
2023-01-11T21:14:24.074Z,70.30
2023-01-11T21:16:53.187Z,70.50
2023-01-11T21:19:20.225Z,70.80
2023-01-11T21:21:49.054Z,70.70
2023-01-11T21:24:17.335Z,71.00
2023-01-11T21:26:46.101Z,70.90
2023-01-11T21:29:13.482Z,70.90
2023-01-11T21:31:41.563Z,70.80
2023-01-11T21:34:11.595Z,71.20
2023-01-11T21:36:38.926Z,71.20
2023-01-11T21:39:06.233Z,71.30
2023-01-11T21:41:52.819Z,71.00
2023-01-11T21:44:20.869Z,71.00
2023-01-11T21:46:48.344Z,71.10
2023-01-11T21:49:16.305Z,71.40
2023-01-11T21:51:43.791Z,71.50
2023-01-11T21:54:13.280Z,72.20
2023-01-11T21:56:41.953Z,71.80
2023-01-11T21:59:08.983Z,71.90
2023-01-11T22:01:37.205Z,72.20
2023-01-11T22:04:15.081Z,72.20
2023-01-11T22:06:47.593Z,72.40
2023-01-11T22:09:15.452Z,73.00
2023-01-11T22:11:42.401Z,72.90
2023-01-11T22:14:09.427Z,72.40
2023-01-11T22:16:37.069Z,72.50
2023-01-11T22:19:07.293Z,72.40
2023-01-11T22:21:35.654Z,72.20
2023-01-11T22:24:02.663Z,72.50
2023-01-11T22:26:34.725Z,72.90
2023-01-11T22:29:17.335Z,72.50
2023-01-11T22:31:47.491Z,72.60
2023-01-11T22:34:15.158Z,72.80
2023-01-11T22:36:43.144Z,72.90
2023-01-11T22:39:11.071Z,73.00
2023-01-11T22:41:39.986Z,72.60
2023-01-11T22:44:08.340Z,72.70
2023-01-11T22:46:35.799Z,72.70
2023-01-11T22:49:03.466Z,72.30
2023-01-11T22:51:30.475Z,72.40
2023-01-11T22:53:58.310Z,72.00
2023-01-11T22:56:26.585Z,72.00
2023-01-11T22:58:54.831Z,72.20
2023-01-11T23:01:24.856Z,72.60
2023-01-11T23:03:53.293Z,72.50
2023-01-11T23:06:23.551Z,72.70
2023-01-11T23:08:50.612Z,72.80
2023-01-11T23:11:40.566Z,73.20
2023-01-11T23:14:09.991Z,73.10
2023-01-11T23:16:37.392Z,72.80
2023-01-11T23:19:06.013Z,72.80
2023-01-11T23:21:33.160Z,72.70
2023-01-11T23:24:03.744Z,73.30
2023-01-11T23:26:30.954Z,72.90
2023-01-11T23:28:57.819Z,72.80
2023-01-11T23:31:26.071Z,72.90
2023-01-11T23:33:55.517Z,73.00
2023-01-11T23:36:24.296Z,72.90
2023-01-11T23:38:51.460Z,73.00
2023-01-11T23:41:38.984Z,73.00
2023-01-11T23:44:09.106Z,73.30
2023-01-11T23:46:55.462Z,73.70
2023-01-11T23:49:22.862Z,73.80
2023-01-11T23:51:49.708Z,73.70
2023-01-11T23:54:17.042Z,74.10
2023-01-11T23:56:44.435Z,73.80
2023-01-11T23:59:11.506Z,73.60
